Time;durP1;ratioP1;P1;durP2;ratioP2;P2;SDS_P1;SDS_P2;PMS_P1;PMS_P2;Temp;Humidity;BMP_temperature;BMP_pressure;BME280_temperature;BME280_humidity;BME280_pressure;Samples;Min_cycle;Max_cycle;Signal;HPM_P1;HPM_P2
2020/12/03 00:00:48;;;;;;;25.05;13.82;;;;;;;2.20;79.70;98487.09;4934331;28;20223;-81
2020/12/03 00:03:26;;;;;;;28.33;13.82;;;;;;;2.35;79.83;98489.09;4934376;28;20238;-81
2020/12/03 00:06:14;;;;;;;31.17;15.88;;;;;;;2.33;79.53;98474.19;4914867;28;20229;-81
2020/12/03 00:08:49;;;;;;;34.97;17.08;;;;;;;2.31;79.67;98476.88;4951862;28;20251;-81
2020/12/03 00:11:19;;;;;;;27.98;14.98;;;;;;;2.32;80.30;98468.00;4937331;28;20318;-80
2020/12/03 00:13:47;;;;;;;28.77;15.35;;;;;;;2.43;79.29;98473.72;4957951;28;20231;-80
2020/12/03 00:16:15;;;;;;;26.25;14.98;;;;;;;2.47;79.34;98477.97;4959236;28;20773;-82
2020/12/03 00:18:44;;;;;;;30.50;15.73;;;;;;;2.29;79.44;98461.97;4961613;28;20216;-81
2020/12/03 00:21:13;;;;;;;29.70;16.90;;;;;;;2.33;79.93;98459.09;4969361;28;20212;-80
2020/12/03 00:23:41;;;;;;;31.50;16.20;;;;;;;2.34;80.06;98450.25;4931090;28;20242;-81
2020/12/03 00:26:10;;;;;;;29.38;15.48;;;;;;;2.43;79.54;98449.84;4916236;28;20227;-80
2020/12/03 00:28:46;;;;;;;30.25;16.05;;;;;;;2.54;79.49;98452.88;4921837;28;20262;-81
2020/12/03 00:31:12;;;;;;;27.98;14.75;;;;;;;2.48;79.36;98458.47;4951838;28;20227;-82
2020/12/03 00:33:39;;;;;;;30.42;15.77;;;;;;;2.48;79.38;98450.50;4940297;28;20334;-80
2020/12/03 00:36:10;;;;;;;27.15;15.27;;;;;;;2.52;78.97;98449.41;4924396;28;20248;-81
2020/12/03 00:38:41;;;;;;;27.65;16.50;;;;;;;2.57;79.00;98450.06;4927824;28;20232;-80
2020/12/03 00:41:18;;;;;;;31.73;16.30;;;;;;;2.60;78.60;98443.78;4933269;28;20231;-81
2020/12/03 00:43:46;;;;;;;29.02;16.35;;;;;;;2.64;79.04;98424.13;4956127;28;20259;-80
2020/12/03 00:46:24;;;;;;;27.75;16.33;;;;;;;2.57;78.49;98428.84;4953689;28;20253;-81
2020/12/03 00:49:03;;;;;;;32.20;16.00;;;;;;;2.71;78.24;98414.97;4929466;28;20219;-81
2020/12/03 00:51:31;;;;;;;25.15;14.77;;;;;;;2.70;78.38;98414.09;4909254;28;20237;-81
2020/12/03 00:53:59;;;;;;;23.35;14.68;;;;;;;2.71;77.44;98413.16;4926817;28;20284;-82
2020/12/03 00:56:30;;;;;;;27.50;16.20;;;;;;;2.69;77.78;98412.38;4935264;28;20232;-81
2020/12/03 00:59:02;;;;;;;28.38;15.50;;;;;;;2.65;77.46;98410.78;4923375;28;20227;-81
2020/12/03 01:01:33;;;;;;;24.73;15.02;;;;;;;2.64;77.78;98406.41;4919457;28;20204;-81
2020/12/03 01:03:59;;;;;;;26.40;16.05;;;;;;;2.70;78.07;98403.47;4938956;28;20218;-80
2020/12/03 01:06:26;;;;;;;28.67;15.60;;;;;;;2.75;78.20;98387.34;4950437;28;20714;-82
2020/12/03 01:08:53;;;;;;;30.00;16.85;;;;;;;2.68;77.45;98391.19;4917779;28;20223;-80
2020/12/03 01:11:28;;;;;;;29.42;16.85;;;;;;;2.59;77.49;98387.19;4966933;28;20275;-80
2020/12/03 01:13:59;;;;;;;24.48;14.93;;;;;;;2.68;77.48;98400.03;4951207;28;20233;-81
2020/12/03 01:16:29;;;;;;;27.17;16.85;;;;;;;2.69;77.98;98393.78;4932113;28;20226;-79
2020/12/03 01:18:58;;;;;;;28.60;15.55;;;;;;;2.68;77.58;98383.25;4946314;28;20204;-79
2020/12/03 01:21:26;;;;;;;27.23;15.23;;;;;;;2.51;77.59;98378.72;4958384;28;20226;-78
2020/12/03 01:23:53;;;;;;;29.73;15.63;;;;;;;2.62;77.70;98371.13;4936376;28;20220;-80
2020/12/03 01:26:22;;;;;;;25.98;14.82;;;;;;;2.59;78.04;98371.28;4943025;28;20266;-80
2020/12/03 01:28:52;;;;;;;26.45;16.13;;;;;;;2.69;77.51;98356.63;4930012;28;20231;-79
2020/12/03 01:31:18;;;;;;;24.67;14.90;;;;;;;2.66;77.63;98355.91;4936124;28;20219;-80
2020/12/03 01:33:45;;;;;;;29.15;17.23;;;;;;;2.68;77.90;98359.34;4931848;28;20200;-78
2020/12/03 01:36:15;;;;;;;29.88;16.65;;;;;;;2.69;77.94;98353.16;4947433;28;22616;-81
2020/12/03 01:38:42;;;;;;;27.98;16.40;;;;;;;2.74;77.75;98354.63;4930499;28;20227;-79
2020/12/03 01:41:08;;;;;;;25.05;15.00;;;;;;;2.83;77.90;98348.88;4943069;28;20228;-77
2020/12/03 01:43:41;;;;;;;29.80;17.25;;;;;;;2.77;77.62;98346.50;4945293;28;20801;-78
2020/12/03 01:46:07;;;;;;;32.90;17.35;;;;;;;2.63;77.51;98337.50;4932065;29;20577;-78
2020/12/03 01:48:44;;;;;;;26.45;15.88;;;;;;;2.62;77.97;98338.41;4948687;28;20236;-77
2020/12/03 01:51:26;;;;;;;25.77;16.55;;;;;;;2.62;77.76;98344.59;4943701;28;20600;-77
2020/12/03 01:53:56;;;;;;;28.80;16.42;;;;;;;2.62;78.14;98328.66;4943358;28;22927;-77
2020/12/03 01:56:44;;;;;;;25.30;16.10;;;;;;;2.72;77.96;98335.28;4940789;28;21391;-78
2020/12/03 01:59:12;;;;;;;26.13;14.68;;;;;;;2.64;77.32;98332.09;4955986;28;20200;-77
2020/12/03 02:01:39;;;;;;;27.02;15.65;;;;;;;2.46;78.13;98332.97;4965241;28;20224;-77
2020/12/03 02:04:05;;;;;;;26.35;15.63;;;;;;;2.63;78.09;98314.47;4967164;28;20206;-77
2020/12/03 02:06:34;;;;;;;27.17;16.48;;;;;;;2.67;77.92;98316.06;4937023;28;20256;-78
2020/12/03 02:09:05;;;;;;;28.00;15.77;;;;;;;2.56;77.88;98307.72;4927278;28;20221;-77
2020/12/03 02:11:31;;;;;;;26.55;16.25;;;;;;;2.62;78.16;98310.09;4926802;28;20216;-78
2020/12/03 02:14:01;;;;;;;24.50;15.15;;;;;;;2.59;78.28;98306.72;4945860;28;20613;-77
2020/12/03 02:16:32;;;;;;;28.35;16.25;;;;;;;2.62;77.92;98306.56;4924277;28;20221;-76
2020/12/03 02:18:59;;;;;;;27.77;16.13;;;;;;;2.57;77.80;98292.69;4962349;28;20303;-76
2020/12/03 02:21:25;;;;;;;29.85;16.30;;;;;;;2.54;78.23;98285.72;4957779;28;20216;-77
2020/12/03 02:23:51;;;;;;;25.77;15.13;;;;;;;2.59;78.44;98281.06;4948157;28;20777;-77
2020/12/03 02:26:18;;;;;;;30.55;17.38;;;;;;;2.59;78.41;98272.22;4940782;28;20247;-77
2020/12/03 02:28:45;;;;;;;23.80;15.02;;;;;;;2.62;78.07;98274.72;4925008;28;20757;-76
2020/12/03 02:31:11;;;;;;;27.38;15.40;;;;;;;2.65;78.24;98264.81;4924919;28;20203;-78
2020/12/03 02:33:38;;;;;;;27.80;14.57;;;;;;;2.54;77.98;98259.19;4957633;28;20228;-76
2020/12/03 02:36:05;;;;;;;29.30;16.08;;;;;;;2.64;78.29;98257.78;4938630;28;20237;-77
2020/12/03 02:38:31;;;;;;;30.50;16.98;;;;;;;2.74;78.32;98251.13;4927325;28;20231;-77
2020/12/03 02:40:59;;;;;;;24.30;15.38;;;;;;;2.70;77.83;98257.50;4946426;28;20310;-77
2020/12/03 02:43:26;;;;;;;22.90;15.13;;;;;;;2.75;77.90;98249.31;4941463;28;20226;-79
2020/12/03 02:45:52;;;;;;;25.45;16.73;;;;;;;2.70;77.94;98248.69;4932413;28;20208;-78
2020/12/03 02:48:19;;;;;;;27.63;15.10;;;;;;;2.71;77.19;98248.59;4944764;28;20227;-78
2020/12/03 02:50:46;;;;;;;28.20;16.42;;;;;;;2.64;77.18;98244.53;4944638;28;20239;-77
2020/12/03 02:53:12;;;;;;;27.42;15.57;;;;;;;2.60;77.49;98242.09;4925647;28;20309;-78
2020/12/03 02:55:38;;;;;;;27.92;15.82;;;;;;;2.60;77.56;98237.66;4928591;28;20223;-77
2020/12/03 02:58:04;;;;;;;28.42;15.98;;;;;;;2.57;77.62;98229.84;4928714;28;20207;-78
2020/12/03 03:00:30;;;;;;;27.90;16.10;;;;;;;2.71;77.72;98231.84;4945353;28;20582;-78
2020/12/03 03:02:56;;;;;;;26.80;15.88;;;;;;;2.74;77.96;98224.59;4957933;28;20235;-78
2020/12/03 03:05:24;;;;;;;27.60;17.17;;;;;;;2.70;77.68;98225.66;4963972;28;20729;-78
2020/12/03 03:07:51;;;;;;;24.85;14.90;;;;;;;2.87;77.08;98212.44;4959518;28;20234;-78
2020/12/03 03:10:21;;;;;;;24.88;15.45;;;;;;;2.86;77.12;98209.84;4929923;28;20209;-77
2020/12/03 03:12:51;;;;;;;27.17;16.23;;;;;;;2.84;77.31;98209.06;4943041;28;20657;-76
2020/12/03 03:15:18;;;;;;;28.25;15.30;;;;;;;2.89;77.55;98215.84;4942680;28;20477;-78
2020/12/03 03:17:45;;;;;;;28.33;18.08;;;;;;;2.85;76.55;98213.44;4960498;28;20225;-77
2020/12/03 03:20:12;;;;;;;25.65;15.70;;;;;;;2.97;77.02;98208.34;4950483;28;20231;-78
2020/12/03 03:22:40;;;;;;;26.00;15.65;;;;;;;2.89;77.14;98213.19;4946418;28;20220;-77
2020/12/03 03:25:07;;;;;;;26.50;16.08;;;;;;;2.95;76.46;98212.91;4936925;29;20464;-78
2020/12/03 03:27:35;;;;;;;24.40;15.95;;;;;;;2.90;76.80;98212.25;4961401;28;20278;-78
2020/12/03 03:30:02;;;;;;;25.75;16.33;;;;;;;2.94;77.35;98208.53;4928419;28;20231;-78
2020/12/03 03:32:28;;;;;;;28.73;18.48;;;;;;;2.91;76.28;98213.13;4944532;28;20227;-79
2020/12/03 03:34:54;;;;;;;28.00;16.70;;;;;;;2.89;76.54;98212.34;4941974;28;20215;-77
2020/12/03 03:37:20;;;;;;;27.35;16.67;;;;;;;2.80;77.24;98211.00;4942522;28;20251;-78
2020/12/03 03:39:46;;;;;;;29.75;17.02;;;;;;;2.82;76.97;98206.47;4948190;28;20196;-78
2020/12/03 03:42:12;;;;;;;28.25;18.40;;;;;;;2.83;77.19;98207.34;4967414;28;20268;-77
2020/12/03 03:44:38;;;;;;;24.67;15.95;;;;;;;2.82;77.14;98197.69;4971947;28;20204;-77
2020/12/03 03:47:04;;;;;;;31.40;18.05;;;;;;;2.87;77.03;98195.63;4965310;28;20293;-78
2020/12/03 03:49:30;;;;;;;27.85;16.38;;;;;;;2.89;77.26;98197.28;4955507;28;20200;-76
2020/12/03 03:51:57;;;;;;;30.75;18.85;;;;;;;2.89;77.32;98191.97;4935187;29;20212;-78
2020/12/03 03:54:23;;;;;;;27.77;16.15;;;;;;;2.93;76.62;98185.56;4930858;28;20235;-78
2020/12/03 03:56:49;;;;;;;28.85;16.30;;;;;;;2.90;76.60;98190.19;4932978;28;20220;-77
2020/12/03 03:59:15;;;;;;;23.45;15.85;;;;;;;2.83;77.04;98192.25;4928190;28;20226;-77
2020/12/03 04:01:41;;;;;;;25.65;17.08;;;;;;;2.82;77.30;98187.91;4930909;29;20228;-79
2020/12/03 04:04:08;;;;;;;27.20;16.73;;;;;;;2.78;77.28;98190.78;4948356;28;20200;-78
2020/12/03 04:06:34;;;;;;;27.08;17.65;;;;;;;2.85;77.33;98177.16;4948543;28;20255;-76
2020/12/03 04:09:00;;;;;;;28.45;17.25;;;;;;;2.95;77.16;98178.38;4933098;29;20220;-78
2020/12/03 04:11:26;;;;;;;29.33;17.73;;;;;;;2.96;77.11;98185.41;4934163;28;20681;-78
2020/12/03 04:13:52;;;;;;;26.50;16.75;;;;;;;2.90;77.14;98179.56;4933097;28;20231;-77
2020/12/03 04:16:18;;;;;;;27.15;16.85;;;;;;;2.88;77.07;98181.44;4985576;23;20227;-77
2020/12/03 04:18:44;;;;;;;29.70;18.23;;;;;;;2.88;77.32;98182.28;4962988;28;20234;-77
2020/12/03 04:21:16;;;;;;;29.92;18.15;;;;;;;2.93;77.30;98179.38;4962812;28;20220;-77
2020/12/03 04:23:44;;;;;;;28.58;16.58;;;;;;;2.92;76.82;98183.00;4970495;28;20203;-80
2020/12/03 04:26:11;;;;;;;28.05;17.73;;;;;;;2.93;76.94;98180.25;4952296;28;20726;-77
2020/12/03 04:28:38;;;;;;;33.45;18.63;;;;;;;2.84;77.22;98180.72;4951715;28;20227;-78
2020/12/03 04:31:04;;;;;;;27.73;18.50;;;;;;;2.82;77.69;98171.13;4955776;28;20217;-77
2020/12/03 04:33:30;;;;;;;28.40;18.55;;;;;;;2.84;77.52;98175.41;4974182;28;20204;-78
2020/12/03 04:35:56;;;;;;;29.45;19.13;;;;;;;2.87;77.70;98169.94;4910192;28;20322;-78
2020/12/03 04:38:22;;;;;;;30.23;19.13;;;;;;;2.85;77.81;98165.66;4947608;28;20215;-78
2020/12/03 04:40:50;;;;;;;31.02;21.10;;;;;;;3.04;77.27;98167.31;4996311;28;20255;-78
2020/12/03 04:43:39;;;;;;;28.85;17.95;;;;;;;3.06;77.01;98165.44;4958479;28;20217;-77
2020/12/03 04:46:37;;;;;;;29.77;18.27;;;;;;;2.84;77.62;98158.63;4991571;28;20228;-78
2020/12/03 04:49:27;;;;;;;31.98;19.45;;;;;;;2.91;78.94;98168.00;4956314;28;20224;-77
2020/12/03 04:52:23;;;;;;;29.30;17.63;;;;;;;2.98;77.49;98149.03;4957585;28;20224;-76
2020/12/03 04:55:15;;;;;;;28.73;18.60;;;;;;;2.95;78.13;98151.84;4953167;28;20227;-76
2020/12/03 04:57:58;;;;;;;26.85;16.48;;;;;;;2.96;77.58;98153.53;4983517;28;20226;-78
2020/12/03 05:00:46;;;;;;;27.35;16.35;;;;;;;2.79;77.79;98129.66;4938450;28;20595;-78
2020/12/03 05:03:47;;;;;;;26.52;16.85;;;;;;;3.03;77.36;98138.19;4968875;28;20235;-77
2020/12/03 05:06:22;;;;;;;25.10;16.30;;;;;;;2.95;77.10;98130.59;4977465;28;20220;-77
2020/12/03 05:09:06;;;;;;;31.63;18.55;;;;;;;2.99;76.82;98123.31;4994344;28;20207;-78
2020/12/03 05:11:49;;;;;;;25.08;15.55;;;;;;;2.98;76.86;98118.97;4972471;28;20247;-77
2020/12/03 05:14:41;;;;;;;24.80;15.93;;;;;;;2.98;76.76;98124.28;4959787;28;20276;-76
2020/12/03 05:17:30;;;;;;;25.98;16.63;;;;;;;3.01;76.74;98111.69;4979863;28;20236;-76
2020/12/03 05:20:15;;;;;;;26.60;16.80;;;;;;;2.98;76.86;98111.88;4943140;28;20242;-78
2020/12/03 05:22:47;;;;;;;23.80;15.18;;;;;;;2.82;76.68;98105.59;4961503;28;20219;-78
2020/12/03 05:25:15;;;;;;;23.52;14.95;;;;;;;2.83;77.71;98103.84;4930814;28;20218;-77
2020/12/03 05:27:43;;;;;;;24.13;14.85;;;;;;;2.91;76.77;98102.50;4921794;28;20355;-77
2020/12/03 05:30:09;;;;;;;22.65;14.85;;;;;;;2.74;76.88;98094.53;4980269;28;20231;-76
2020/12/03 05:32:36;;;;;;;24.02;15.30;;;;;;;2.99;76.60;98097.66;4997163;28;20263;-79
2020/12/03 05:35:04;;;;;;;23.65;16.48;;;;;;;2.85;76.95;98092.19;4969959;28;20232;-78
2020/12/03 05:37:33;;;;;;;25.77;14.90;;;;;;;3.00;76.61;98099.34;4968155;28;20227;-77
2020/12/03 05:40:00;;;;;;;27.80;16.80;;;;;;;2.81;76.95;98085.31;4969912;28;20208;-77
2020/12/03 05:42:31;;;;;;;25.38;17.00;;;;;;;2.91;77.17;98086.56;4964933;28;20311;-77
2020/12/03 05:45:00;;;;;;;22.77;15.07;;;;;;;2.86;76.97;98080.63;4963140;28;20266;-78
2020/12/03 05:47:32;;;;;;;24.73;15.85;;;;;;;2.84;76.36;98087.81;4977776;28;20274;-78
2020/12/03 05:50:04;;;;;;;25.90;15.68;;;;;;;2.90;76.26;98087.50;4980299;28;20389;-78
2020/12/03 05:52:31;;;;;;;26.50;17.00;;;;;;;3.00;76.47;98078.13;4982533;28;20205;-76
2020/12/03 05:55:01;;;;;;;25.92;17.02;;;;;;;2.89;76.83;98077.81;4976613;28;20196;-78
2020/12/03 05:57:41;;;;;;;25.80;16.77;;;;;;;2.99;76.71;98080.84;4978772;28;20243;-77
2020/12/03 06:00:08;;;;;;;27.67;16.48;;;;;;;3.06;76.54;98077.81;4960892;28;20319;-77
2020/12/03 06:02:47;;;;;;;23.45;14.80;;;;;;;3.13;75.43;98073.88;4979313;28;20224;-77
2020/12/03 06:05:19;;;;;;;23.92;15.10;;;;;;;3.18;75.58;98066.53;4957419;28;20223;-77
2020/12/03 06:08:00;;;;;;;24.80;15.75;;;;;;;3.11;75.94;98067.81;4975989;28;20258;-77
2020/12/03 06:10:39;;;;;;;24.38;15.25;;;;;;;3.06;75.73;98050.38;4964965;28;20211;-77
2020/12/03 06:13:40;;;;;;;22.60;15.20;;;;;;;3.09;75.21;98052.88;4959676;28;20196;-77
2020/12/03 06:16:28;;;;;;;26.33;15.73;;;;;;;3.11;75.65;98057.19;4978562;28;20757;-77
2020/12/03 06:19:23;;;;;;;23.88;15.85;;;;;;;3.20;75.36;98056.69;4957010;28;20227;-77
2020/12/03 06:22:04;;;;;;;26.50;14.43;;;;;;;3.11;74.98;98062.50;4973528;28;20892;-77
2020/12/03 06:24:54;;;;;;;24.73;14.93;;;;;;;3.07;75.39;98063.59;4978762;28;20729;-78
2020/12/03 06:27:28;;;;;;;28.23;15.68;;;;;;;3.05;75.53;98068.13;4937697;28;21230;-76
2020/12/03 06:30:27;;;;;;;23.23;15.23;;;;;;;3.04;75.68;98061.09;4975240;28;20226;-77
2020/12/03 06:33:00;;;;;;;19.95;14.32;;;;;;;3.03;75.40;98054.03;4977536;28;20258;-78
2020/12/03 06:35:29;;;;;;;23.88;14.65;;;;;;;3.08;75.11;98051.19;4955174;28;20223;-77
2020/12/03 06:38:09;;;;;;;22.73;14.90;;;;;;;3.01;75.47;98040.00;4964993;28;20228;-77
2020/12/03 06:40:40;;;;;;;25.20;15.80;;;;;;;3.02;76.09;98047.03;4977341;28;20221;-77
2020/12/03 06:43:38;;;;;;;23.52;14.20;;;;;;;3.11;76.16;98043.91;4964512;28;20193;-77
2020/12/03 06:46:41;;;;;;;24.60;15.10;;;;;;;3.09;75.89;98027.16;4928092;28;20722;-78
2020/12/03 06:49:13;;;;;;;20.20;13.60;;;;;;;3.08;75.46;98033.44;4962595;28;20235;-77
2020/12/03 06:52:06;;;;;;;24.17;14.85;;;;;;;3.08;75.15;98030.78;4960662;28;21117;-76
2020/12/03 06:54:42;;;;;;;21.25;14.02;;;;;;;2.97;75.73;98038.44;4940173;28;20252;-77
2020/12/03 06:57:39;;;;;;;20.48;14.20;;;;;;;2.92;75.59;98032.53;4957802;28;20311;-77
2020/12/03 07:00:39;;;;;;;21.30;13.82;;;;;;;2.98;75.88;98021.59;4967036;28;20192;-76
2020/12/03 07:03:36;;;;;;;23.17;14.68;;;;;;;3.10;75.10;98022.72;4963892;28;20220;-77
2020/12/03 07:06:40;;;;;;;23.85;14.45;;;;;;;3.10;74.86;98023.59;5005839;28;20247;-76
2020/12/03 07:09:36;;;;;;;23.48;16.27;;;;;;;3.08;75.11;98009.53;4965397;28;20715;-76
2020/12/03 07:12:42;;;;;;;22.55;14.38;;;;;;;2.94;75.90;98012.06;4977661;28;20215;-77
2020/12/03 07:15:46;;;;;;;21.10;12.90;;;;;;;3.22;74.56;98011.44;4996685;28;20282;-76
2020/12/03 07:18:24;;;;;;;25.27;14.27;;;;;;;3.19;74.67;98007.16;4997686;28;20219;-79
2020/12/03 07:21:21;;;;;;;21.42;14.23;;;;;;;3.19;74.70;98003.63;4962369;28;20230;-77
2020/12/03 07:24:02;;;;;;;25.48;15.20;;;;;;;3.27;74.06;97999.63;4937561;28;20223;-78
2020/12/03 07:26:37;;;;;;;23.42;14.27;;;;;;;3.22;74.85;97996.34;5001349;28;20371;-77
2020/12/03 07:29:12;;;;;;;25.42;16.15;;;;;;;3.03;75.32;97997.44;4977391;28;20233;-76
2020/12/03 07:31:41;;;;;;;20.80;14.60;;;;;;;3.10;75.34;97981.13;4958313;28;20206;-78
2020/12/03 07:34:29;;;;;;;21.05;14.15;;;;;;;3.33;74.12;97977.22;4948407;28;20213;-78
2020/12/03 07:37:04;;;;;;;28.08;16.35;;;;;;;3.28;74.58;97974.78;4965279;28;20488;-79
2020/12/03 07:39:35;;;;;;;22.85;15.32;;;;;;;3.22;74.39;97963.66;4969701;28;20857;-77
2020/12/03 07:42:08;;;;;;;21.33;14.80;;;;;;;3.27;74.90;97962.44;4934583;28;20873;-77
2020/12/03 07:44:50;;;;;;;23.30;14.13;;;;;;;3.36;74.11;97956.63;4966965;28;20275;-77
2020/12/03 07:47:31;;;;;;;24.38;14.70;;;;;;;3.31;73.70;97944.53;4963654;28;20227;-77
2020/12/03 07:50:21;;;;;;;23.08;14.73;;;;;;;3.19;74.47;97942.56;4968357;28;20204;-79
2020/12/03 07:53:17;;;;;;;22.60;14.27;;;;;;;3.33;74.39;97940.00;4978463;28;20228;-78
2020/12/03 07:55:43;;;;;;;21.05;14.18;;;;;;;3.34;74.52;97929.28;4963276;28;20200;-78
2020/12/03 07:58:32;;;;;;;21.58;14.68;;;;;;;3.32;74.10;97917.91;4949406;28;20208;-77
2020/12/03 08:00:58;;;;;;;22.35;14.63;;;;;;;3.26;74.31;97904.09;5006885;28;20216;-77
2020/12/03 08:03:40;;;;;;;20.83;14.35;;;;;;;3.39;74.11;97898.00;4943859;28;20216;-77
2020/12/03 08:06:30;;;;;;;23.75;15.57;;;;;;;3.20;74.23;97894.66;5002794;28;20236;-77
2020/12/03 08:08:59;;;;;;;20.55;13.30;;;;;;;3.18;74.65;97893.91;4954685;28;20227;-78
2020/12/03 08:11:40;;;;;;;19.45;13.65;;;;;;;3.25;74.44;97891.75;4967059;28;20227;-77
2020/12/03 08:14:32;;;;;;;22.42;15.10;;;;;;;3.24;74.17;97890.91;4980809;28;22698;-78
2020/12/03 08:16:59;;;;;;;22.50;13.80;;;;;;;3.39;73.88;97895.34;4945093;28;20319;-78
2020/12/03 08:19:35;;;;;;;19.05;13.80;;;;;;;3.47;73.58;97902.91;4959623;28;20286;-78
2020/12/03 08:22:22;;;;;;;21.45;13.38;;;;;;;3.32;73.92;97894.00;4958504;28;20212;-77
2020/12/03 08:25:00;;;;;;;21.25;13.82;;;;;;;3.46;73.48;97887.91;4995411;28;20230;-78
2020/12/03 08:27:26;;;;;;;21.00;14.85;;;;;;;3.45;73.94;97896.78;4964181;28;20459;-77
2020/12/03 08:29:52;;;;;;;21.65;14.60;;;;;;;3.50;73.58;97889.41;4987687;28;21934;-78
2020/12/03 08:32:18;;;;;;;21.67;13.75;;;;;;;3.46;73.50;97895.88;4997967;28;20255;-77
2020/12/03 08:34:45;;;;;;;19.48;13.23;;;;;;;3.48;73.72;97893.97;4985258;28;20299;-74
2020/12/03 08:37:24;;;;;;;18.08;13.38;;;;;;;3.50;73.64;97894.75;5013552;28;20231;-77
2020/12/03 08:39:53;;;;;;;18.98;13.48;;;;;;;3.70;72.96;97892.66;4969166;28;20266;-76
2020/12/03 08:42:19;;;;;;;23.00;13.75;;;;;;;3.58;73.66;97893.34;4967710;28;20694;-78
2020/12/03 08:44:47;;;;;;;20.23;12.73;;;;;;;3.80;72.86;97887.66;4979133;28;20251;-77
2020/12/03 08:47:37;;;;;;;17.63;12.38;;;;;;;3.90;71.54;97889.69;4987970;28;20242;-76
2020/12/03 08:50:13;;;;;;;17.48;11.48;;;;;;;3.66;72.08;97895.59;4976693;28;20262;-76
2020/12/03 08:52:39;;;;;;;20.17;11.90;;;;;;;3.87;71.83;97897.00;4958780;28;20216;-76
2020/12/03 08:55:07;;;;;;;17.27;12.23;;;;;;;3.77;72.18;97893.13;4979156;28;20210;-77
2020/12/03 08:57:46;;;;;;;18.23;13.23;;;;;;;3.68;72.81;97885.72;4938802;28;20283;-76
2020/12/03 09:00:17;;;;;;;17.63;12.15;;;;;;;3.92;71.83;97884.28;5002415;28;20291;-78
2020/12/03 09:02:45;;;;;;;16.45;12.30;;;;;;;4.04;71.35;97881.75;4993419;28;20263;-76
2020/12/03 09:05:13;;;;;;;19.10;13.35;;;;;;;4.04;70.95;97881.75;5001110;28;20204;-76
2020/12/03 09:07:47;;;;;;;16.30;10.80;;;;;;;3.98;71.00;97882.09;5018186;28;20220;-77
2020/12/03 09:10:15;;;;;;;18.65;11.95;;;;;;;4.00;71.39;97877.56;4972314;28;20196;-76
2020/12/03 09:12:48;;;;;;;17.42;12.88;;;;;;;4.16;71.03;97882.84;5001174;28;20228;-77
2020/12/03 09:15:17;;;;;;;16.55;11.25;;;;;;;4.20;70.64;97877.25;4971958;28;20247;-82
2020/12/03 09:17:50;;;;;;;16.50;11.80;;;;;;;4.09;70.94;97877.03;4972543;28;20270;-82
2020/12/03 09:20:18;;;;;;;15.52;10.73;;;;;;;4.25;70.12;97863.66;4967965;28;20689;-82
2020/12/03 09:22:45;;;;;;;13.48;9.80;;;;;;;4.13;70.10;97859.94;4936929;28;20264;-80
2020/12/03 09:25:13;;;;;;;13.70;9.25;;;;;;;4.18;70.14;97852.50;4951903;28;20216;-82
2020/12/03 09:27:47;;;;;;;13.60;10.02;;;;;;;4.23;70.17;97854.91;4936266;28;21094;-81
2020/12/03 09:30:26;;;;;;;12.65;9.50;;;;;;;4.41;69.52;97851.97;4963422;28;20583;-81
2020/12/03 09:33:01;;;;;;;13.65;9.15;;;;;;;4.65;68.52;97844.28;4998143;28;20255;-80
2020/12/03 09:35:31;;;;;;;12.82;9.70;;;;;;;4.62;67.94;97847.16;4963189;28;20298;-82
2020/12/03 09:38:05;;;;;;;10.57;8.43;;;;;;;4.57;68.30;97847.41;4951468;28;20263;-81
2020/12/03 09:40:33;;;;;;;14.82;10.10;;;;;;;4.58;68.34;97835.84;4939432;28;20646;-82
2020/12/03 09:43:00;;;;;;;14.63;10.07;;;;;;;4.75;67.65;97842.78;4966122;28;22779;-79
2020/12/03 09:45:34;;;;;;;14.98;10.30;;;;;;;4.76;67.98;97845.31;4982760;28;20259;-82
2020/12/03 09:48:02;;;;;;;12.95;9.15;;;;;;;4.79;67.25;97839.81;4950788;28;20863;-81
2020/12/03 09:50:29;;;;;;;14.55;9.23;;;;;;;4.69;68.00;97838.66;4966629;28;20310;-81
2020/12/03 09:52:56;;;;;;;15.50;9.90;;;;;;;4.60;68.12;97828.59;4970858;28;20283;-80
2020/12/03 09:55:22;;;;;;;14.80;10.07;;;;;;;4.45;68.59;97829.56;4982445;28;20263;-81
2020/12/03 09:57:56;;;;;;;12.70;9.30;;;;;;;4.55;68.27;97822.72;4944089;28;20228;-81
2020/12/03 10:00:30;;;;;;;16.80;11.23;;;;;;;4.58;69.17;97809.22;4964411;28;21892;-81
2020/12/03 10:02:57;;;;;;;15.43;9.52;;;;;;;4.76;68.41;97809.88;4962395;28;20250;-80
2020/12/03 10:05:33;;;;;;;13.00;9.52;;;;;;;4.83;67.96;97796.06;4961257;28;20231;-81
2020/12/03 10:08:37;;;;;;;14.30;9.85;;;;;;;4.77;67.46;97793.81;4972055;28;20346;-81
2020/12/03 10:11:26;;;;;;;16.27;11.38;;;;;;;5.00;67.39;97784.34;4973470;28;21609;-82
2020/12/03 10:14:31;;;;;;;40.20;14.30;;;;;;;4.98;67.40;97779.09;4988350;28;20239;-82
2020/12/03 10:17:13;;;;;;;12.90;9.63;;;;;;;5.29;65.74;97770.81;4981754;28;20246;-81
2020/12/03 10:19:47;;;;;;;12.73;9.10;;;;;;;5.23;66.02;97752.56;5005724;28;20214;-81
2020/12/03 10:22:52;;;;;;;11.85;8.95;;;;;;;5.13;66.60;97764.78;4919046;29;20234;-79
2020/12/03 10:25:20;;;;;;;10.98;8.20;;;;;;;5.24;65.74;97754.28;4887297;28;20267;-79
2020/12/03 10:27:49;;;;;;;12.50;8.43;;;;;;;5.19;65.88;97745.72;4931449;28;20243;-79
2020/12/03 10:30:35;;;;;;;10.73;8.57;;;;;;;5.08;66.42;97737.56;4936303;29;20209;-78
2020/12/03 10:33:13;;;;;;;11.88;9.15;;;;;;;5.10;66.36;97730.34;4950125;28;20280;-79
2020/12/03 10:35:44;;;;;;;12.48;9.45;;;;;;;4.94;66.70;97710.16;4914852;28;20256;-80
2020/12/03 10:38:18;;;;;;;13.18;9.18;;;;;;;4.96;66.13;97714.44;4891921;29;20205;-81
2020/12/03 10:40:54;;;;;;;11.55;9.05;;;;;;;5.10;66.68;97701.06;4892965;29;20244;-82
2020/12/03 10:43:48;;;;;;;12.55;9.15;;;;;;;5.31;65.95;97694.28;4935582;28;20217;-81
2020/12/03 10:46:24;;;;;;;11.77;8.10;;;;;;;5.30;65.16;97681.91;4912389;28;20244;-82
2020/12/03 10:48:57;;;;;;;11.82;8.05;;;;;;;5.40;65.25;97685.66;4897524;28;20230;-82
2020/12/03 10:51:24;;;;;;;11.20;8.02;;;;;;;5.58;64.68;97678.22;4897330;28;20229;-83
2020/12/03 10:53:51;;;;;;;9.25;7.57;;;;;;;5.85;63.52;97663.84;4928490;29;20217;-79
2020/12/03 10:56:26;;;;;;;13.82;8.95;;;;;;;6.15;63.37;97656.38;4917414;28;20225;-80
2020/12/03 10:59:08;;;;;;;9.45;6.80;;;;;;;6.56;61.65;97640.91;4903517;28;20220;-81
2020/12/03 11:01:35;;;;;;;8.93;6.82;;;;;;;6.48;61.47;97632.56;4906552;29;20410;-80
2020/12/03 11:04:06;;;;;;;10.30;8.02;;;;;;;6.65;61.21;97629.53;4900033;29;20233;-82
2020/12/03 11:06:38;;;;;;;8.98;7.50;;;;;;;6.51;61.52;97617.19;4926503;28;20346;-80
2020/12/03 11:09:05;;;;;;;10.45;7.20;;;;;;;6.73;61.21;97624.47;4913411;29;20232;-80
2020/12/03 11:11:34;;;;;;;9.60;7.18;;;;;;;7.04;60.56;97621.22;4904662;29;20214;-81
2020/12/03 11:14:00;;;;;;;9.98;7.20;;;;;;;6.69;60.96;97607.81;4920995;28;20240;-78
2020/12/03 11:16:31;;;;;;;9.98;7.72;;;;;;;6.53;61.58;97609.94;4905604;29;20206;-79
2020/12/03 11:19:18;;;;;;;11.68;8.20;;;;;;;5.85;63.92;97615.00;4905519;29;20209;-80
2020/12/03 11:21:57;;;;;;;12.10;8.30;;;;;;;6.13;63.51;97615.59;4927741;28;20321;-80
2020/12/03 11:24:35;;;;;;;12.10;7.60;;;;;;;6.50;62.69;97606.66;4935651;28;20197;-80
2020/12/03 11:27:04;;;;;;;12.63;8.15;;;;;;;6.64;61.50;97609.97;4904886;29;20208;-78
2020/12/03 11:29:35;;;;;;;14.25;8.57;;;;;;;6.30;61.85;97605.41;4912462;28;20217;-78
2020/12/03 11:32:02;;;;;;;12.85;8.05;;;;;;;6.20;62.53;97604.41;4899476;29;20202;-78
2020/12/03 11:34:38;;;;;;;10.48;7.55;;;;;;;6.18;62.78;97597.47;4892556;29;20233;-79
2020/12/03 11:37:07;;;;;;;13.63;8.63;;;;;;;6.15;63.72;97600.31;4909508;28;20346;-77
2020/12/03 11:39:33;;;;;;;16.35;9.10;;;;;;;5.99;63.75;97592.56;4914997;28;20206;-79
2020/12/03 11:42:22;;;;;;;12.18;8.70;;;;;;;6.03;63.88;97581.69;4924746;29;20250;-79
2020/12/03 11:45:19;;;;;;;12.23;9.10;;;;;;;6.42;63.09;97569.81;4905138;29;20230;-80
2020/12/03 11:50:35;;;;;;;10.43;8.85;;;;;;;6.47;62.21;97564.13;4933286;28;20478;-80
2020/12/03 11:53:02;;;;;;;16.15;8.43;;;;;;;6.43;62.92;97555.50;4917311;28;20376;-80
2020/12/03 11:55:28;;;;;;;10.00;7.32;;;;;;;6.42;62.97;97558.28;4927478;28;20319;-80
2020/12/03 11:58:04;;;;;;;11.02;8.07;;;;;;;6.39;63.26;97559.38;4912464;28;20344;-80
2020/12/03 12:00:36;;;;;;;10.65;7.82;;;;;;;6.13;63.83;97549.72;4899580;28;20216;-79